sensor_id;sensor_type;location;lat;lon;timestamp;P1;durP1;ratioP1;P2;durP2;ratioP2
23072;SDS011;67971;51.046;3.732;2023-03-16T00:02:19;12.77;;;7.63;;
23072;SDS011;67971;51.046;3.732;2023-03-16T00:04:45;15.00;;;7.63;;
23072;SDS011;67971;51.046;3.732;2023-03-16T00:07:11;11.23;;;7.63;;
23072;SDS011;67971;51.046;3.732;2023-03-16T00:09:38;10.03;;;6.80;;
23072;SDS011;67971;51.046;3.732;2023-03-16T00:12:17;15.17;;;7.93;;
23072;SDS011;67971;51.046;3.732;2023-03-16T00:14:44;15.67;;;7.20;;
23072;SDS011;67971;51.046;3.732;2023-03-16T00:17:12;11.53;;;7.50;;
23072;SDS011;67971;51.046;3.732;2023-03-16T00:20:16;14.13;;;7.23;;
23072;SDS011;67971;51.046;3.732;2023-03-16T00:22:35;9.47;;;7.20;;
23072;SDS011;67971;51.046;3.732;2023-03-16T00:25:01;13.90;;;7.20;;
23072;SDS011;67971;51.046;3.732;2023-03-16T00:27:28;13.03;;;6.80;;
23072;SDS011;67971;51.046;3.732;2023-03-16T00:29:54;10.67;;;7.27;;
23072;SDS011;67971;51.046;3.732;2023-03-16T00:32:27;7.77;;;6.40;;
23072;SDS011;67971;51.046;3.732;2023-03-16T00:34:56;12.60;;;7.00;;
23072;SDS011;67971;51.046;3.732;2023-03-16T00:37:22;14.97;;;7.17;;
23072;SDS011;67971;51.046;3.732;2023-03-16T00:39:49;12.43;;;6.30;;
23072;SDS011;67971;51.046;3.732;2023-03-16T00:42:16;11.43;;;6.60;;
23072;SDS011;67971;51.046;3.732;2023-03-16T00:44:43;13.63;;;6.83;;
23072;SDS011;67971;51.046;3.732;2023-03-16T00:47:10;13.40;;;7.20;;
23072;SDS011;67971;51.046;3.732;2023-03-16T00:49:40;12.50;;;7.00;;
23072;SDS011;67971;51.046;3.732;2023-03-16T00:52:07;12.83;;;6.77;;
23072;SDS011;67971;51.046;3.732;2023-03-16T00:54:38;13.93;;;7.17;;
23072;SDS011;67971;51.046;3.732;2023-03-16T00:57:07;14.03;;;6.83;;
23072;SDS011;67971;51.046;3.732;2023-03-16T00:59:33;15.47;;;6.93;;
23072;SDS011;67971;51.046;3.732;2023-03-16T01:02:02;13.97;;;7.17;;
23072;SDS011;67971;51.046;3.732;2023-03-16T01:04:29;12.90;;;6.40;;
23072;SDS011;67971;51.046;3.732;2023-03-16T01:06:56;11.20;;;6.60;;
23072;SDS011;67971;51.046;3.732;2023-03-16T01:09:22;9.27;;;6.17;;
23072;SDS011;67971;51.046;3.732;2023-03-16T01:11:47;13.33;;;6.30;;
23072;SDS011;67971;51.046;3.732;2023-03-16T01:14:17;9.93;;;5.77;;
23072;SDS011;67971;51.046;3.732;2023-03-16T01:16:43;11.53;;;6.10;;
23072;SDS011;67971;51.046;3.732;2023-03-16T01:19:10;13.80;;;6.40;;
23072;SDS011;67971;51.046;3.732;2023-03-16T01:21:39;11.60;;;6.30;;
23072;SDS011;67971;51.046;3.732;2023-03-16T01:24:06;13.73;;;5.97;;
23072;SDS011;67971;51.046;3.732;2023-03-16T01:26:32;18.07;;;6.63;;
23072;SDS011;67971;51.046;3.732;2023-03-16T01:28:58;11.23;;;6.07;;
23072;SDS011;67971;51.046;3.732;2023-03-16T01:31:24;9.43;;;6.50;;
23072;SDS011;67971;51.046;3.732;2023-03-16T01:33:49;9.60;;;6.17;;
23072;SDS011;67971;51.046;3.732;2023-03-16T01:36:16;7.93;;;5.50;;
23072;SDS011;67971;51.046;3.732;2023-03-16T01:38:43;12.43;;;6.13;;
23072;SDS011;67971;51.046;3.732;2023-03-16T01:41:09;9.97;;;6.13;;
23072;SDS011;67971;51.046;3.732;2023-03-16T01:43:38;19.17;;;6.73;;
23072;SDS011;67971;51.046;3.732;2023-03-16T01:54:44;16.77;;;6.27;;
23072;SDS011;67971;51.046;3.732;2023-03-16T01:56:58;13.50;;;6.27;;
23072;SDS011;67971;51.046;3.732;2023-03-16T01:59:32;8.83;;;5.33;;
23072;SDS011;67971;51.046;3.732;2023-03-16T02:02:04;9.23;;;5.83;;
23072;SDS011;67971;51.046;3.732;2023-03-16T02:04:38;12.10;;;5.70;;
23072;SDS011;67971;51.046;3.732;2023-03-16T02:07:24;12.37;;;5.37;;
23072;SDS011;67971;51.046;3.732;2023-03-16T02:09:53;13.53;;;5.93;;
23072;SDS011;67971;51.046;3.732;2023-03-16T02:12:22;13.53;;;5.60;;
23072;SDS011;67971;51.046;3.732;2023-03-16T02:14:49;14.00;;;5.17;;
23072;SDS011;67971;51.046;3.732;2023-03-16T02:17:16;12.17;;;5.40;;
23072;SDS011;67971;51.046;3.732;2023-03-16T02:19:59;12.10;;;5.27;;
23072;SDS011;67971;51.046;3.732;2023-03-16T02:22:32;9.13;;;5.10;;
23072;SDS011;67971;51.046;3.732;2023-03-16T02:25:00;11.33;;;5.83;;
23072;SDS011;67971;51.046;3.732;2023-03-16T02:27:52;9.13;;;5.23;;
23072;SDS011;67971;51.046;3.732;2023-03-16T02:30:28;13.37;;;5.40;;
23072;SDS011;67971;51.046;3.732;2023-03-16T02:32:54;10.10;;;4.23;;
23072;SDS011;67971;51.046;3.732;2023-03-16T02:35:21;9.43;;;4.57;;
23072;SDS011;67971;51.046;3.732;2023-03-16T02:37:46;12.70;;;4.90;;
23072;SDS011;67971;51.046;3.732;2023-03-16T02:43:01;11.23;;;4.00;;
23072;SDS011;67971;51.046;3.732;2023-03-16T02:45:51;14.33;;;4.33;;
23072;SDS011;67971;51.046;3.732;2023-03-16T02:48:32;7.57;;;4.43;;
23072;SDS011;67971;51.046;3.732;2023-03-16T02:51:06;9.73;;;4.50;;
23072;SDS011;67971;51.046;3.732;2023-03-16T02:53:32;6.73;;;3.60;;
23072;SDS011;67971;51.046;3.732;2023-03-16T02:55:58;9.60;;;4.37;;
23072;SDS011;67971;51.046;3.732;2023-03-16T02:58:24;7.27;;;4.53;;
23072;SDS011;67971;51.046;3.732;2023-03-16T03:00:49;9.83;;;4.40;;
23072;SDS011;67971;51.046;3.732;2023-03-16T03:03:15;8.97;;;4.07;;
23072;SDS011;67971;51.046;3.732;2023-03-16T03:05:41;14.40;;;4.27;;
23072;SDS011;67971;51.046;3.732;2023-03-16T03:08:07;7.63;;;3.80;;
23072;SDS011;67971;51.046;3.732;2023-03-16T03:10:32;5.27;;;3.80;;
23072;SDS011;67971;51.046;3.732;2023-03-16T03:12:58;11.07;;;3.97;;
23072;SDS011;67971;51.046;3.732;2023-03-16T03:15:24;7.93;;;3.90;;
23072;SDS011;67971;51.046;3.732;2023-03-16T03:17:50;11.00;;;3.63;;
23072;SDS011;67971;51.046;3.732;2023-03-16T03:20:15;9.33;;;3.80;;
23072;SDS011;67971;51.046;3.732;2023-03-16T03:22:42;6.73;;;3.23;;
23072;SDS011;67971;51.046;3.732;2023-03-16T03:25:09;7.30;;;3.20;;
23072;SDS011;67971;51.046;3.732;2023-03-16T03:27:35;9.63;;;4.03;;
23072;SDS011;67971;51.046;3.732;2023-03-16T03:30:02;9.43;;;3.90;;
23072;SDS011;67971;51.046;3.732;2023-03-16T03:32:29;6.20;;;3.30;;
23072;SDS011;67971;51.046;3.732;2023-03-16T03:34:55;9.10;;;3.63;;
23072;SDS011;67971;51.046;3.732;2023-03-16T03:37:20;11.47;;;4.03;;
23072;SDS011;67971;51.046;3.732;2023-03-16T03:39:46;9.07;;;3.63;;
23072;SDS011;67971;51.046;3.732;2023-03-16T03:42:12;9.50;;;3.40;;
23072;SDS011;67971;51.046;3.732;2023-03-16T03:44:38;7.60;;;3.23;;
23072;SDS011;67971;51.046;3.732;2023-03-16T03:47:03;11.70;;;3.57;;
23072;SDS011;67971;51.046;3.732;2023-03-16T03:49:29;14.17;;;3.50;;
23072;SDS011;67971;51.046;3.732;2023-03-16T03:51:55;6.73;;;3.27;;
23072;SDS011;67971;51.046;3.732;2023-03-16T03:54:23;7.20;;;3.53;;
23072;SDS011;67971;51.046;3.732;2023-03-16T03:56:50;9.90;;;3.10;;
23072;SDS011;67971;51.046;3.732;2023-03-16T03:59:15;11.87;;;3.70;;
23072;SDS011;67971;51.046;3.732;2023-03-16T04:01:41;11.83;;;3.67;;
23072;SDS011;67971;51.046;3.732;2023-03-16T04:04:07;5.80;;;2.77;;
23072;SDS011;67971;51.046;3.732;2023-03-16T04:06:33;9.80;;;3.47;;
23072;SDS011;67971;51.046;3.732;2023-03-16T04:08:59;6.40;;;3.03;;
23072;SDS011;67971;51.046;3.732;2023-03-16T04:11:24;9.37;;;3.57;;
23072;SDS011;67971;51.046;3.732;2023-03-16T04:13:50;7.80;;;3.87;;
23072;SDS011;67971;51.046;3.732;2023-03-16T04:16:17;7.60;;;4.33;;
23072;SDS011;67971;51.046;3.732;2023-03-16T04:18:43;6.97;;;3.63;;
23072;SDS011;67971;51.046;3.732;2023-03-16T04:21:14;7.70;;;3.97;;
23072;SDS011;67971;51.046;3.732;2023-03-16T04:23:41;7.60;;;3.80;;
23072;SDS011;67971;51.046;3.732;2023-03-16T04:26:07;7.47;;;4.10;;
23072;SDS011;67971;51.046;3.732;2023-03-16T04:28:33;6.07;;;3.60;;
23072;SDS011;67971;51.046;3.732;2023-03-16T04:31:06;8.60;;;3.87;;
23072;SDS011;67971;51.046;3.732;2023-03-16T04:33:34;8.10;;;3.47;;
23072;SDS011;67971;51.046;3.732;2023-03-16T04:36:01;11.20;;;4.30;;
23072;SDS011;67971;51.046;3.732;2023-03-16T04:38:28;13.00;;;3.97;;
23072;SDS011;67971;51.046;3.732;2023-03-16T04:40:54;7.10;;;3.40;;
23072;SDS011;67971;51.046;3.732;2023-03-16T04:43:20;4.37;;;2.93;;
23072;SDS011;67971;51.046;3.732;2023-03-16T04:45:46;6.47;;;2.83;;
23072;SDS011;67971;51.046;3.732;2023-03-16T04:48:12;8.63;;;3.50;;
23072;SDS011;67971;51.046;3.732;2023-03-16T04:50:38;8.67;;;3.90;;
23072;SDS011;67971;51.046;3.732;2023-03-16T04:53:05;7.90;;;3.53;;
23072;SDS011;67971;51.046;3.732;2023-03-16T04:55:31;8.03;;;3.20;;
23072;SDS011;67971;51.046;3.732;2023-03-16T04:57:56;5.27;;;2.87;;
23072;SDS011;67971;51.046;3.732;2023-03-16T05:00:22;7.57;;;2.80;;
23072;SDS011;67971;51.046;3.732;2023-03-16T05:02:49;7.53;;;2.43;;
23072;SDS011;67971;51.046;3.732;2023-03-16T05:05:19;7.33;;;2.80;;
23072;SDS011;67971;51.046;3.732;2023-03-16T05:07:45;7.33;;;3.37;;
23072;SDS011;67971;51.046;3.732;2023-03-16T05:10:13;9.13;;;3.30;;
23072;SDS011;67971;51.046;3.732;2023-03-16T05:12:40;9.10;;;2.37;;
23072;SDS011;67971;51.046;3.732;2023-03-16T05:15:06;5.47;;;2.70;;
23072;SDS011;67971;51.046;3.732;2023-03-16T05:17:33;5.77;;;2.53;;
23072;SDS011;67971;51.046;3.732;2023-03-16T05:19:59;7.07;;;2.60;;
23072;SDS011;67971;51.046;3.732;2023-03-16T05:22:25;7.30;;;2.73;;
23072;SDS011;67971;51.046;3.732;2023-03-16T05:24:50;6.63;;;2.83;;
23072;SDS011;67971;51.046;3.732;2023-03-16T05:27:16;7.70;;;2.80;;
23072;SDS011;67971;51.046;3.732;2023-03-16T05:29:42;4.93;;;3.00;;
23072;SDS011;67971;51.046;3.732;2023-03-16T05:32:13;5.27;;;2.43;;
23072;SDS011;67971;51.046;3.732;2023-03-16T05:34:41;6.30;;;2.50;;
23072;SDS011;67971;51.046;3.732;2023-03-16T05:37:07;2.80;;;2.03;;
23072;SDS011;67971;51.046;3.732;2023-03-16T05:39:33;6.13;;;2.90;;
23072;SDS011;67971;51.046;3.732;2023-03-16T05:41:59;4.47;;;2.37;;
23072;SDS011;67971;51.046;3.732;2023-03-16T05:44:25;6.53;;;2.40;;
23072;SDS011;67971;51.046;3.732;2023-03-16T05:46:50;9.60;;;2.87;;
23072;SDS011;67971;51.046;3.732;2023-03-16T05:49:16;3.53;;;2.00;;
23072;SDS011;67971;51.046;3.732;2023-03-16T05:51:42;4.37;;;2.30;;
23072;SDS011;67971;51.046;3.732;2023-03-16T05:54:07;5.10;;;2.30;;
23072;SDS011;67971;51.046;3.732;2023-03-16T05:56:33;7.33;;;2.40;;
23072;SDS011;67971;51.046;3.732;2023-03-16T05:58:59;4.53;;;1.83;;
23072;SDS011;67971;51.046;3.732;2023-03-16T06:01:26;9.43;;;3.27;;
23072;SDS011;67971;51.046;3.732;2023-03-16T06:03:52;5.63;;;2.37;;
23072;SDS011;67971;51.046;3.732;2023-03-16T06:06:18;5.23;;;2.53;;
23072;SDS011;67971;51.046;3.732;2023-03-16T06:08:46;8.27;;;2.47;;
23072;SDS011;67971;51.046;3.732;2023-03-16T06:11:12;2.90;;;2.00;;
23072;SDS011;67971;51.046;3.732;2023-03-16T06:13:38;5.43;;;2.80;;
23072;SDS011;67971;51.046;3.732;2023-03-16T06:16:04;7.20;;;2.30;;
23072;SDS011;67971;51.046;3.732;2023-03-16T06:18:30;6.47;;;1.83;;
23072;SDS011;67971;51.046;3.732;2023-03-16T06:20:57;5.03;;;1.80;;
23072;SDS011;67971;51.046;3.732;2023-03-16T06:23:23;6.83;;;2.37;;
23072;SDS011;67971;51.046;3.732;2023-03-16T06:25:48;7.73;;;1.97;;
23072;SDS011;67971;51.046;3.732;2023-03-16T06:28:15;6.83;;;2.50;;
23072;SDS011;67971;51.046;3.732;2023-03-16T06:30:41;5.17;;;1.67;;
23072;SDS011;67971;51.046;3.732;2023-03-16T06:33:07;8.57;;;2.50;;
23072;SDS011;67971;51.046;3.732;2023-03-16T06:35:32;4.40;;;1.90;;
23072;SDS011;67971;51.046;3.732;2023-03-16T06:37:58;6.23;;;1.90;;
23072;SDS011;67971;51.046;3.732;2023-03-16T06:40:24;5.67;;;1.83;;
23072;SDS011;67971;51.046;3.732;2023-03-16T06:42:50;7.20;;;2.17;;
23072;SDS011;67971;51.046;3.732;2023-03-16T06:45:15;6.80;;;2.03;;
23072;SDS011;67971;51.046;3.732;2023-03-16T06:47:42;7.80;;;2.33;;
23072;SDS011;67971;51.046;3.732;2023-03-16T06:50:08;7.70;;;2.20;;
23072;SDS011;67971;51.046;3.732;2023-03-16T06:52:36;5.10;;;1.67;;
23072;SDS011;67971;51.046;3.732;2023-03-16T06:55:02;6.03;;;2.30;;
23072;SDS011;67971;51.046;3.732;2023-03-16T06:57:27;5.27;;;2.10;;
23072;SDS011;67971;51.046;3.732;2023-03-16T06:59:53;3.87;;;2.00;;
23072;SDS011;67971;51.046;3.732;2023-03-16T07:02:19;7.87;;;2.30;;
23072;SDS011;67971;51.046;3.732;2023-03-16T07:04:47;8.93;;;2.33;;
23072;SDS011;67971;51.046;3.732;2023-03-16T07:07:13;5.97;;;1.93;;
23072;SDS011;67971;51.046;3.732;2023-03-16T07:09:41;8.63;;;2.50;;
23072;SDS011;67971;51.046;3.732;2023-03-16T07:12:07;5.13;;;2.07;;
23072;SDS011;67971;51.046;3.732;2023-03-16T07:14:33;5.80;;;1.90;;
23072;SDS011;67971;51.046;3.732;2023-03-16T07:16:59;10.47;;;1.90;;
23072;SDS011;67971;51.046;3.732;2023-03-16T07:19:25;5.47;;;1.80;;
23072;SDS011;67971;51.046;3.732;2023-03-16T07:21:51;6.13;;;1.97;;
23072;SDS011;67971;51.046;3.732;2023-03-16T07:24:17;4.90;;;2.20;;
23072;SDS011;67971;51.046;3.732;2023-03-16T07:26:46;4.70;;;2.00;;
23072;SDS011;67971;51.046;3.732;2023-03-16T07:29:12;8.17;;;1.80;;
23072;SDS011;67971;51.046;3.732;2023-03-16T07:31:39;12.03;;;1.97;;
23072;SDS011;67971;51.046;3.732;2023-03-16T07:34:05;4.70;;;1.93;;
23072;SDS011;67971;51.046;3.732;2023-03-16T07:36:31;2.70;;;1.73;;
23072;SDS011;67971;51.046;3.732;2023-03-16T07:38:57;7.37;;;2.17;;
23072;SDS011;67971;51.046;3.732;2023-03-16T07:41:23;8.30;;;2.37;;
23072;SDS011;67971;51.046;3.732;2023-03-16T07:43:49;5.87;;;2.20;;
23072;SDS011;67971;51.046;3.732;2023-03-16T07:46:15;4.90;;;2.30;;
23072;SDS011;67971;51.046;3.732;2023-03-16T07:48:42;3.97;;;2.10;;
23072;SDS011;67971;51.046;3.732;2023-03-16T07:51:09;8.07;;;2.03;;
23072;SDS011;67971;51.046;3.732;2023-03-16T07:53:36;6.87;;;2.10;;
23072;SDS011;67971;51.046;3.732;2023-03-16T07:56:02;4.20;;;1.90;;
23072;SDS011;67971;51.046;3.732;2023-03-16T07:58:28;7.20;;;1.93;;
23072;SDS011;67971;51.046;3.732;2023-03-16T08:00:55;5.60;;;2.53;;
23072;SDS011;67971;51.046;3.732;2023-03-16T08:03:23;5.87;;;1.70;;
23072;SDS011;67971;51.046;3.732;2023-03-16T08:05:49;5.43;;;1.60;;
23072;SDS011;67971;51.046;3.732;2023-03-16T08:08:15;5.33;;;1.80;;
23072;SDS011;67971;51.046;3.732;2023-03-16T08:10:41;4.90;;;1.63;;
23072;SDS011;67971;51.046;3.732;2023-03-16T08:13:07;5.07;;;2.00;;
23072;SDS011;67971;51.046;3.732;2023-03-16T08:15:33;4.93;;;2.03;;
23072;SDS011;67971;51.046;3.732;2023-03-16T08:17:59;7.53;;;2.03;;
23072;SDS011;67971;51.046;3.732;2023-03-16T08:20:31;4.10;;;1.80;;
23072;SDS011;67971;51.046;3.732;2023-03-16T08:22:57;9.03;;;2.37;;
23072;SDS011;67971;51.046;3.732;2023-03-16T08:25:23;4.13;;;1.97;;
23072;SDS011;67971;51.046;3.732;2023-03-16T08:27:49;5.67;;;1.93;;
23072;SDS011;67971;51.046;3.732;2023-03-16T08:30:15;2.87;;;1.63;;
23072;SDS011;67971;51.046;3.732;2023-03-16T08:32:41;5.87;;;2.10;;
23072;SDS011;67971;51.046;3.732;2023-03-16T08:35:08;5.13;;;1.83;;
23072;SDS011;67971;51.046;3.732;2023-03-16T08:37:37;4.50;;;1.70;;
23072;SDS011;67971;51.046;3.732;2023-03-16T08:40:03;3.90;;;1.63;;
23072;SDS011;67971;51.046;3.732;2023-03-16T08:42:35;6.20;;;1.67;;
23072;SDS011;67971;51.046;3.732;2023-03-16T08:45:09;5.83;;;2.13;;
23072;SDS011;67971;51.046;3.732;2023-03-16T08:47:35;11.03;;;2.70;;
23072;SDS011;67971;51.046;3.732;2023-03-16T08:50:03;6.00;;;2.50;;
23072;SDS011;67971;51.046;3.732;2023-03-16T08:52:30;5.83;;;2.03;;
23072;SDS011;67971;51.046;3.732;2023-03-16T08:54:56;6.20;;;1.90;;
23072;SDS011;67971;51.046;3.732;2023-03-16T08:57:22;4.23;;;1.80;;
23072;SDS011;67971;51.046;3.732;2023-03-16T08:59:48;3.93;;;1.90;;
23072;SDS011;67971;51.046;3.732;2023-03-16T09:02:15;4.17;;;2.00;;
23072;SDS011;67971;51.046;3.732;2023-03-16T09:04:40;5.97;;;2.20;;
23072;SDS011;67971;51.046;3.732;2023-03-16T09:07:06;8.43;;;1.90;;
23072;SDS011;67971;51.046;3.732;2023-03-16T09:09:33;7.60;;;1.80;;
23072;SDS011;67971;51.046;3.732;2023-03-16T09:11:59;8.30;;;1.90;;
23072;SDS011;67971;51.046;3.732;2023-03-16T09:14:25;4.17;;;1.70;;
23072;SDS011;67971;51.046;3.732;2023-03-16T09:16:51;8.87;;;2.63;;
23072;SDS011;67971;51.046;3.732;2023-03-16T09:19:17;6.43;;;1.93;;
23072;SDS011;67971;51.046;3.732;2023-03-16T09:21:43;5.53;;;1.80;;
23072;SDS011;67971;51.046;3.732;2023-03-16T09:24:10;5.03;;;1.97;;
23072;SDS011;67971;51.046;3.732;2023-03-16T09:26:35;3.77;;;1.90;;
23072;SDS011;67971;51.046;3.732;2023-03-16T09:29:03;8.83;;;2.50;;
23072;SDS011;67971;51.046;3.732;2023-03-16T09:31:31;2.33;;;1.50;;
23072;SDS011;67971;51.046;3.732;2023-03-16T09:33:57;10.23;;;2.70;;
23072;SDS011;67971;51.046;3.732;2023-03-16T09:36:23;7.27;;;2.10;;
23072;SDS011;67971;51.046;3.732;2023-03-16T09:38:51;6.10;;;2.23;;
23072;SDS011;67971;51.046;3.732;2023-03-16T09:46:26;8.37;;;1.67;;
23072;SDS011;67971;51.046;3.732;2023-03-16T09:48:56;1.97;;;1.40;;
23072;SDS011;67971;51.046;3.732;2023-03-16T09:54:02;9.90;;;2.00;;
23072;SDS011;67971;51.046;3.732;2023-03-16T09:56:36;7.10;;;2.17;;
23072;SDS011;67971;51.046;3.732;2023-03-16T09:59:09;5.07;;;1.83;;
23072;SDS011;67971;51.046;3.732;2023-03-16T10:01:39;9.87;;;2.20;;
23072;SDS011;67971;51.046;3.732;2023-03-16T10:04:40;6.17;;;2.33;;
23072;SDS011;67971;51.046;3.732;2023-03-16T10:07:20;5.40;;;1.67;;
23072;SDS011;67971;51.046;3.732;2023-03-16T10:12:38;6.00;;;1.93;;
23072;SDS011;67971;51.046;3.732;2023-03-16T10:15:17;4.43;;;1.60;;
23072;SDS011;67971;51.046;3.732;2023-03-16T10:17:51;8.07;;;2.00;;
23072;SDS011;67971;51.046;3.732;2023-03-16T10:20:22;7.93;;;1.97;;
23072;SDS011;67971;51.046;3.732;2023-03-16T10:22:50;10.70;;;2.27;;
23072;SDS011;67971;51.046;3.732;2023-03-16T10:25:26;11.13;;;2.37;;
23072;SDS011;67971;51.046;3.732;2023-03-16T10:28:19;6.28;;;1.77;;
23072;SDS011;67971;51.046;3.732;2023-03-16T10:30:47;7.77;;;2.40;;
23072;SDS011;67971;51.046;3.732;2023-03-16T10:35:57;3.90;;;1.63;;
23072;SDS011;67971;51.046;3.732;2023-03-16T10:38:36;8.52;;;2.03;;
23072;SDS011;67971;51.046;3.732;2023-03-16T10:41:23;8.68;;;2.08;;
23072;SDS011;67971;51.046;3.732;2023-03-16T10:44:00;6.10;;;1.90;;
23072;SDS011;67971;51.046;3.732;2023-03-16T10:46:37;5.93;;;1.85;;
23072;SDS011;67971;51.046;3.732;2023-03-16T10:49:25;4.23;;;2.03;;
23072;SDS011;67971;51.046;3.732;2023-03-16T10:51:53;5.95;;;2.10;;
23072;SDS011;67971;51.046;3.732;2023-03-16T10:54:28;4.75;;;1.92;;
23072;SDS011;67971;51.046;3.732;2023-03-16T10:57:00;5.60;;;1.85;;
23072;SDS011;67971;51.046;3.732;2023-03-16T10:59:38;6.57;;;1.63;;
23072;SDS011;67971;51.046;3.732;2023-03-16T11:02:14;4.93;;;1.77;;
23072;SDS011;67971;51.046;3.732;2023-03-16T11:04:43;5.53;;;1.60;;
23072;SDS011;67971;51.046;3.732;2023-03-16T11:07:19;4.17;;;2.30;;
23072;SDS011;67971;51.046;3.732;2023-03-16T11:09:49;8.70;;;2.03;;
23072;SDS011;67971;51.046;3.732;2023-03-16T11:12:29;7.67;;;2.00;;
23072;SDS011;67971;51.046;3.732;2023-03-16T11:15:08;5.07;;;2.03;;
23072;SDS011;67971;51.046;3.732;2023-03-16T11:17:42;10.47;;;1.93;;
23072;SDS011;67971;51.046;3.732;2023-03-16T11:20:13;4.67;;;1.80;;
23072;SDS011;67971;51.046;3.732;2023-03-16T11:22:49;7.37;;;2.37;;
23072;SDS011;67971;51.046;3.732;2023-03-16T11:25:26;6.30;;;1.70;;
23072;SDS011;67971;51.046;3.732;2023-03-16T11:27:55;5.65;;;1.88;;
23072;SDS011;67971;51.046;3.732;2023-03-16T11:30:43;8.45;;;2.63;;
23072;SDS011;67971;51.046;3.732;2023-03-16T11:33:12;6.55;;;2.08;;
23072;SDS011;67971;51.046;3.732;2023-03-16T11:35:46;4.88;;;1.52;;
23072;SDS011;67971;51.046;3.732;2023-03-16T11:41:21;5.88;;;2.03;;
23072;SDS011;67971;51.046;3.732;2023-03-16T11:44:45;7.10;;;2.10;;
23072;SDS011;67971;51.046;3.732;2023-03-16T11:49:37;5.68;;;1.83;;
23072;SDS011;67971;51.046;3.732;2023-03-16T11:55:31;3.33;;;1.55;;
23072;SDS011;67971;51.046;3.732;2023-03-16T12:01:05;5.95;;;1.90;;
23072;SDS011;67971;51.046;3.732;2023-03-16T12:15:20;4.75;;;2.00;;
23072;SDS011;67971;51.046;3.732;2023-03-16T12:18:21;8.30;;;1.75;;
23072;SDS011;67971;51.046;3.732;2023-03-16T12:21:09;9.00;;;1.90;;
23072;SDS011;67971;51.046;3.732;2023-03-16T12:23:57;5.53;;;1.77;;
23072;SDS011;67971;51.046;3.732;2023-03-16T12:26:32;7.63;;;1.85;;
23072;SDS011;67971;51.046;3.732;2023-03-16T12:29:06;6.32;;;1.67;;
23072;SDS011;67971;51.046;3.732;2023-03-16T12:34:42;7.13;;;1.90;;
23072;SDS011;67971;51.046;3.732;2023-03-16T12:37:28;9.35;;;2.35;;
23072;SDS011;67971;51.046;3.732;2023-03-16T12:45:58;4.32;;;1.85;;
23072;SDS011;67971;51.046;3.732;2023-03-16T12:48:46;4.90;;;1.80;;
23072;SDS011;67971;51.046;3.732;2023-03-16T12:51:16;6.57;;;1.90;;
23072;SDS011;67971;51.046;3.732;2023-03-16T12:56:18;10.52;;;2.72;;
23072;SDS011;67971;51.046;3.732;2023-03-16T12:58:53;6.28;;;1.90;;
23072;SDS011;67971;51.046;3.732;2023-03-16T13:01:24;5.75;;;1.73;;
23072;SDS011;67971;51.046;3.732;2023-03-16T13:03:57;4.88;;;1.95;;
23072;SDS011;67971;51.046;3.732;2023-03-16T13:06:31;4.13;;;2.00;;
23072;SDS011;67971;51.046;3.732;2023-03-16T13:08:59;5.55;;;2.13;;
23072;SDS011;67971;51.046;3.732;2023-03-16T13:11:28;10.23;;;2.05;;
23072;SDS011;67971;51.046;3.732;2023-03-16T13:14:12;5.95;;;1.75;;
23072;SDS011;67971;51.046;3.732;2023-03-16T13:16:53;4.13;;;1.38;;
23072;SDS011;67971;51.046;3.732;2023-03-16T13:22:25;6.47;;;1.83;;
23072;SDS011;67971;51.046;3.732;2023-03-16T13:25:12;4.28;;;1.75;;
23072;SDS011;67971;51.046;3.732;2023-03-16T13:27:46;6.43;;;1.80;;
23072;SDS011;67971;51.046;3.732;2023-03-16T13:30:27;5.88;;;1.92;;
23072;SDS011;67971;51.046;3.732;2023-03-16T13:33:38;6.75;;;2.22;;
23072;SDS011;67971;51.046;3.732;2023-03-16T13:35:50;7.68;;;1.90;;
23072;SDS011;67971;51.046;3.732;2023-03-16T13:38:18;5.00;;;1.92;;
23072;SDS011;67971;51.046;3.732;2023-03-16T13:40:47;6.63;;;2.13;;
23072;SDS011;67971;51.046;3.732;2023-03-16T13:43:16;4.57;;;1.80;;
23072;SDS011;67971;51.046;3.732;2023-03-16T13:45:53;5.60;;;2.15;;
23072;SDS011;67971;51.046;3.732;2023-03-16T13:48:19;5.32;;;1.85;;
23072;SDS011;67971;51.046;3.732;2023-03-16T13:50:52;4.28;;;1.60;;
23072;SDS011;67971;51.046;3.732;2023-03-16T13:55:48;3.85;;;1.90;;
23072;SDS011;67971;51.046;3.732;2023-03-16T13:58:21;3.05;;;1.50;;
23072;SDS011;67971;51.046;3.732;2023-03-16T14:00:49;3.25;;;1.63;;
23072;SDS011;67971;51.046;3.732;2023-03-16T14:03:22;3.97;;;1.55;;
23072;SDS011;67971;51.046;3.732;2023-03-16T14:05:48;9.18;;;1.92;;
23072;SDS011;67971;51.046;3.732;2023-03-16T14:08:15;3.38;;;1.63;;
23072;SDS011;67971;51.046;3.732;2023-03-16T14:10:43;6.72;;;1.70;;
23072;SDS011;67971;51.046;3.732;2023-03-16T14:16:09;3.22;;;1.30;;
23072;SDS011;67971;51.046;3.732;2023-03-16T14:18:42;6.30;;;1.50;;
23072;SDS011;67971;51.046;3.732;2023-03-16T14:21:16;6.13;;;1.70;;
23072;SDS011;67971;51.046;3.732;2023-03-16T14:24:06;2.47;;;1.45;;
23072;SDS011;67971;51.046;3.732;2023-03-16T14:26:38;3.80;;;1.40;;
23072;SDS011;67971;51.046;3.732;2023-03-16T14:31:52;4.95;;;1.13;;
23072;SDS011;67971;51.046;3.732;2023-03-16T14:36:47;3.58;;;1.17;;
23072;SDS011;67971;51.046;3.732;2023-03-16T14:39:13;2.45;;;1.30;;
23072;SDS011;67971;51.046;3.732;2023-03-16T14:41:43;3.33;;;1.60;;
23072;SDS011;67971;51.046;3.732;2023-03-16T14:44:33;4.55;;;1.35;;
23072;SDS011;67971;51.046;3.732;2023-03-16T14:47:01;3.47;;;1.30;;
23072;SDS011;67971;51.046;3.732;2023-03-16T14:49:32;5.55;;;1.35;;
23072;SDS011;67971;51.046;3.732;2023-03-16T14:52:23;4.85;;;1.50;;
23072;SDS011;67971;51.046;3.732;2023-03-16T14:54:53;7.80;;;1.60;;
23072;SDS011;67971;51.046;3.732;2023-03-16T14:57:20;8.10;;;1.80;;
23072;SDS011;67971;51.046;3.732;2023-03-16T14:59:46;2.92;;;1.60;;
23072;SDS011;67971;51.046;3.732;2023-03-16T15:02:16;2.95;;;1.40;;
23072;SDS011;67971;51.046;3.732;2023-03-16T15:05:01;2.75;;;1.73;;
23072;SDS011;67971;51.046;3.732;2023-03-16T15:07:28;3.75;;;1.70;;
23072;SDS011;67971;51.046;3.732;2023-03-16T15:10:38;5.05;;;1.58;;
23072;SDS011;67971;51.046;3.732;2023-03-16T15:12:53;4.18;;;1.90;;
23072;SDS011;67971;51.046;3.732;2023-03-16T15:15:28;9.00;;;2.00;;
23072;SDS011;67971;51.046;3.732;2023-03-16T15:17:54;6.35;;;2.08;;
23072;SDS011;67971;51.046;3.732;2023-03-16T15:20:22;5.85;;;1.95;;
23072;SDS011;67971;51.046;3.732;2023-03-16T15:22:54;5.70;;;1.88;;
23072;SDS011;67971;51.046;3.732;2023-03-16T15:30:42;5.07;;;1.92;;
23072;SDS011;67971;51.046;3.732;2023-03-16T15:33:09;4.35;;;2.05;;
23072;SDS011;67971;51.046;3.732;2023-03-16T15:35:36;3.05;;;2.00;;
23072;SDS011;67971;51.046;3.732;2023-03-16T15:38:03;3.10;;;1.55;;
23072;SDS011;67971;51.046;3.732;2023-03-16T15:40:35;2.88;;;1.77;;
23072;SDS011;67971;51.046;3.732;2023-03-16T15:43:04;5.50;;;2.10;;
23072;SDS011;67971;51.046;3.732;2023-03-16T15:45:34;5.10;;;2.20;;
23072;SDS011;67971;51.046;3.732;2023-03-16T15:48:00;2.92;;;1.88;;
23072;SDS011;67971;51.046;3.732;2023-03-16T15:50:26;4.70;;;2.03;;
23072;SDS011;67971;51.046;3.732;2023-03-16T15:52:58;5.63;;;2.38;;
23072;SDS011;67971;51.046;3.732;2023-03-16T15:55:33;6.13;;;2.30;;
23072;SDS011;67971;51.046;3.732;2023-03-16T15:58:26;4.50;;;2.20;;
23072;SDS011;67971;51.046;3.732;2023-03-16T16:00:53;5.83;;;2.00;;
23072;SDS011;67971;51.046;3.732;2023-03-16T16:03:21;3.67;;;1.93;;
23072;SDS011;67971;51.046;3.732;2023-03-16T16:05:47;4.00;;;2.03;;
23072;SDS011;67971;51.046;3.732;2023-03-16T16:08:13;3.80;;;2.30;;
23072;SDS011;67971;51.046;3.732;2023-03-16T16:10:40;6.70;;;2.57;;
23072;SDS011;67971;51.046;3.732;2023-03-16T16:13:14;5.60;;;2.67;;
23072;SDS011;67971;51.046;3.732;2023-03-16T16:15:53;6.67;;;4.10;;
23072;SDS011;67971;51.046;3.732;2023-03-16T16:20:55;4.37;;;2.17;;
23072;SDS011;67971;51.046;3.732;2023-03-16T16:23:22;3.63;;;2.80;;